createdAt,value
2018-11-27T00:00:46.215Z,7.44
2018-11-27T00:03:16.953Z,7.36
2018-11-27T00:05:47.586Z,7.30
2018-11-27T00:09:12.848Z,7.29
2018-11-27T00:11:43.584Z,7.22
2018-11-27T00:14:14.302Z,7.34
2018-11-27T00:16:47.753Z,7.39
2018-11-27T00:19:19.607Z,7.45
2018-11-27T00:21:57.768Z,7.42
2018-11-27T00:24:38.604Z,7.45
2018-11-27T00:27:31.226Z,7.40
2018-11-27T00:30:09.940Z,7.39
2018-11-27T00:32:41.020Z,7.38
2018-11-27T00:35:12.838Z,7.37
2018-11-27T00:37:44.351Z,7.23
2018-11-27T00:40:18.631Z,7.15
2018-11-27T00:42:49.298Z,7.11
2018-11-27T00:45:20.988Z,7.08
2018-11-27T00:47:52.382Z,7.02
2018-11-27T00:50:35.066Z,7.01
2018-11-27T00:53:08.085Z,7.01
2018-11-27T00:55:40.434Z,6.94
2018-11-27T00:58:16.531Z,6.92
2018-11-27T01:00:47.642Z,6.94
2018-11-27T01:03:18.270Z,6.94
2018-11-27T01:05:48.916Z,6.90
2018-11-27T01:08:19.614Z,6.85
2018-11-27T01:10:50.330Z,6.86
2018-11-27T01:13:21.634Z,6.85
2018-11-27T01:15:52.548Z,6.90
2018-11-27T01:18:23.151Z,6.99
2018-11-27T01:20:54.615Z,7.06
2018-11-27T01:23:25.218Z,7.11
2018-11-27T01:25:55.884Z,7.21
2018-11-27T01:28:26.537Z,7.31
2018-11-27T01:30:57.248Z,7.31
2018-11-27T01:33:27.881Z,7.23
2018-11-27T01:35:58.540Z,7.39
2018-11-27T01:38:29.170Z,7.38
2018-11-27T01:40:59.946Z,7.37
2018-11-27T01:43:31.255Z,7.45
2018-11-27T01:46:03.415Z,7.45
2018-11-27T01:48:34.036Z,7.37
2018-11-27T01:51:05.908Z,7.36
2018-11-27T01:53:36.554Z,7.32
2018-11-27T01:56:07.596Z,7.17
2018-11-27T01:58:38.244Z,7.16
2018-11-27T02:01:08.911Z,7.05
2018-11-27T02:03:39.631Z,6.92
2018-11-27T02:06:10.290Z,6.82
2018-11-27T02:08:40.996Z,6.74
2018-11-27T02:11:11.618Z,6.60
2018-11-27T02:13:42.350Z,6.54
2018-11-27T02:16:12.991Z,6.53
2018-11-27T02:18:44.019Z,6.54
2018-11-27T02:21:14.763Z,6.55
2018-11-27T02:23:45.867Z,6.66
2018-11-27T02:26:16.624Z,6.61
2018-11-27T02:28:47.278Z,6.68
2018-11-27T02:31:17.876Z,6.66
2018-11-27T02:33:48.723Z,6.62
2018-11-27T02:36:19.433Z,6.61
2018-11-27T02:38:50.046Z,6.63
2018-11-27T02:41:21.270Z,6.73
2018-11-27T02:43:51.875Z,6.84
2018-11-27T02:46:23.204Z,6.84
2018-11-27T02:48:53.890Z,6.85
2018-11-27T02:51:24.544Z,6.80
2018-11-27T02:53:55.268Z,6.81
2018-11-27T02:56:25.985Z,6.83
2018-11-27T02:58:56.610Z,6.82
2018-11-27T03:01:27.665Z,6.80
2018-11-27T03:03:58.496Z,6.81
2018-11-27T03:06:29.152Z,6.82
2018-11-27T03:08:59.817Z,6.84
2018-11-27T03:11:30.547Z,6.89
2018-11-27T03:14:05.327Z,6.90
2018-11-27T03:16:36.021Z,6.85
2018-11-27T03:19:08.733Z,6.91
2018-11-27T03:21:39.376Z,6.84
2018-11-27T03:24:10.015Z,6.80
2018-11-27T03:26:40.611Z,6.61
2018-11-27T03:29:13.058Z,6.56
2018-11-27T03:31:43.684Z,6.43
2018-11-27T03:34:14.372Z,6.38
2018-11-27T03:36:44.997Z,6.30
2018-11-27T03:39:15.739Z,6.28
2018-11-27T03:41:46.415Z,6.29
2018-11-27T03:44:17.071Z,6.31
2018-11-27T03:46:47.766Z,6.34
2018-11-27T03:49:18.422Z,6.32
2018-11-27T03:51:59.808Z,6.40
2018-11-27T03:54:30.671Z,6.50
2018-11-27T03:57:02.282Z,6.64
2018-11-27T03:59:32.980Z,6.66
2018-11-27T04:02:05.900Z,6.71
2018-11-27T04:04:36.974Z,6.74
2018-11-27T04:07:07.610Z,6.69
2018-11-27T04:09:38.275Z,6.73
2018-11-27T04:12:09.006Z,6.69
2018-11-27T04:14:40.042Z,6.64
2018-11-27T04:17:10.659Z,6.53
2018-11-27T04:19:41.312Z,6.46
2018-11-27T04:22:11.951Z,6.45
2018-11-27T04:24:42.669Z,6.39
2018-11-27T04:27:13.238Z,6.34
2018-11-27T04:29:43.898Z,6.34
2018-11-27T04:32:14.543Z,6.35
2018-11-27T04:34:45.159Z,6.44
2018-11-27T04:37:16.079Z,6.51
2018-11-27T04:39:46.698Z,6.58
2018-11-27T04:42:18.059Z,6.59
2018-11-27T04:44:48.760Z,6.48
2018-11-27T04:47:19.355Z,6.54
2018-11-27T04:49:50.003Z,6.61
2018-11-27T04:52:20.609Z,6.56
2018-11-27T04:54:51.299Z,6.57
2018-11-27T04:57:22.307Z,6.55
2018-11-27T04:59:52.971Z,6.55
2018-11-27T05:02:23.592Z,6.41
2018-11-27T05:04:55.167Z,6.36
2018-11-27T05:07:25.847Z,6.26
2018-11-27T05:09:56.475Z,6.16
2018-11-27T05:12:27.194Z,6.14
2018-11-27T05:14:57.886Z,6.11
2018-11-27T05:17:28.772Z,6.03
2018-11-27T05:19:59.386Z,6.04
2018-11-27T05:22:30.268Z,5.99
2018-11-27T05:25:00.968Z,5.94
2018-11-27T05:27:33.314Z,5.94
2018-11-27T05:30:16.313Z,5.95
2018-11-27T05:32:47.011Z,5.96
2018-11-27T05:35:19.728Z,5.88
2018-11-27T05:37:51.382Z,5.96
2018-11-27T05:40:24.720Z,6.04
2018-11-27T05:42:57.431Z,5.94
2018-11-27T05:45:28.344Z,5.92
2018-11-27T05:47:59.392Z,5.90
2018-11-27T05:50:30.217Z,5.87
2018-11-27T05:53:00.868Z,5.86
2018-11-27T05:55:33.539Z,5.81
2018-11-27T05:58:05.178Z,5.73
2018-11-27T06:00:36.436Z,5.67
2018-11-27T06:03:09.919Z,5.67
2018-11-27T06:05:40.762Z,5.66
2018-11-27T06:08:11.508Z,5.64
2018-11-27T06:10:42.136Z,5.57
2018-11-27T06:13:12.822Z,5.61
2018-11-27T06:15:43.456Z,5.68
2018-11-27T06:18:14.135Z,5.67
2018-11-27T06:20:44.821Z,5.70
2018-11-27T06:23:15.495Z,5.67
2018-11-27T06:25:46.151Z,5.59
2018-11-27T06:28:16.860Z,5.50
2018-11-27T06:30:47.538Z,5.60
2018-11-27T06:33:18.198Z,5.59
2018-11-27T06:35:48.995Z,5.60
2018-11-27T06:38:19.634Z,5.73
2018-11-27T06:40:50.275Z,5.70
2018-11-27T06:43:21.311Z,5.76
2018-11-27T06:45:51.952Z,5.78
2018-11-27T06:48:22.604Z,5.74
2018-11-27T06:50:53.300Z,5.79
2018-11-27T06:53:24.207Z,5.68
2018-11-27T06:55:54.929Z,5.66
2018-11-27T06:58:25.538Z,5.61
2018-11-27T07:00:56.282Z,5.51
2018-11-27T07:03:26.915Z,5.40
2018-11-27T07:06:00.440Z,5.35
2018-11-27T07:08:35.562Z,5.38
2018-11-27T07:11:09.238Z,5.36
2018-11-27T07:13:39.883Z,5.42
2018-11-27T07:16:10.576Z,5.45
2018-11-27T07:18:41.187Z,5.44
2018-11-27T07:21:11.848Z,5.41
2018-11-27T07:23:42.539Z,5.48
2018-11-27T07:26:13.206Z,5.36
2018-11-27T07:28:43.884Z,5.27
2018-11-27T07:31:15.859Z,5.16
2018-11-27T07:33:46.975Z,5.17
2018-11-27T07:36:17.635Z,5.18
2018-11-27T07:38:48.667Z,5.19
2018-11-27T07:41:19.541Z,5.27
2018-11-27T07:43:50.456Z,5.28
2018-11-27T07:46:21.082Z,5.31
2018-11-27T07:48:51.772Z,5.36
2018-11-27T07:51:22.398Z,5.40
2018-11-27T07:53:53.068Z,5.51
2018-11-27T07:56:23.666Z,5.56
2018-11-27T07:58:54.360Z,5.70
2018-11-27T08:01:25.025Z,5.75
2018-11-27T08:03:55.662Z,5.81
2018-11-27T08:06:26.831Z,5.77
2018-11-27T08:08:58.450Z,5.74
2018-11-27T08:11:33.556Z,5.76
2018-11-27T08:14:07.371Z,5.92
2018-11-27T08:16:38.026Z,5.83
2018-11-27T08:19:08.671Z,6.00
2018-11-27T08:21:39.374Z,6.01
2018-11-27T08:24:10.058Z,6.05
2018-11-27T08:26:40.795Z,6.17
2018-11-27T08:29:11.399Z,6.09
2018-11-27T08:31:42.094Z,6.17
2018-11-27T08:34:12.690Z,6.24
2018-11-27T08:36:43.855Z,6.19
2018-11-27T08:39:14.469Z,6.32
2018-11-27T08:41:45.135Z,6.34
2018-11-27T08:44:22.205Z,6.41
2018-11-27T08:46:52.911Z,6.40
2018-11-27T08:49:24.671Z,6.41
2018-11-27T08:51:55.501Z,6.48
2018-11-27T08:54:26.173Z,6.66
2018-11-27T08:56:56.798Z,6.79
2018-11-27T08:59:27.459Z,6.88
2018-11-27T09:01:58.114Z,7.00
2018-11-27T09:04:28.716Z,7.08
2018-11-27T09:06:59.370Z,7.10
2018-11-27T09:09:29.994Z,7.36
2018-11-27T09:12:00.668Z,7.46
2018-11-27T09:14:33.825Z,7.74
2018-11-27T09:17:08.179Z,7.80
2018-11-27T09:19:38.859Z,8.01
2018-11-27T09:22:12.705Z,8.17
2018-11-27T09:24:40.783Z,8.34
2018-11-27T09:27:11.395Z,8.51
2018-11-27T09:29:42.411Z,8.63
2018-11-27T09:32:13.111Z,8.63
2018-11-27T09:34:44.770Z,8.59
2018-11-27T09:37:15.489Z,8.55
2018-11-27T09:39:46.156Z,8.54
2018-11-27T09:42:16.867Z,8.69
2018-11-27T09:44:47.574Z,8.97
2018-11-27T09:47:18.253Z,9.06
2018-11-27T09:49:48.957Z,9.15
2018-11-27T09:52:19.599Z,9.30
2018-11-27T09:54:50.271Z,9.60
2018-11-27T09:57:20.936Z,9.79
2018-11-27T09:59:51.634Z,9.96
2018-11-27T10:02:22.281Z,9.75
2018-11-27T10:04:52.961Z,9.71
2018-11-27T10:07:23.767Z,9.96
2018-11-27T10:09:54.534Z,9.92
2018-11-27T10:12:25.287Z,9.90
2018-11-27T10:14:55.965Z,10.11
2018-11-27T10:17:26.635Z,10.31
2018-11-27T10:19:57.393Z,10.64
2018-11-27T10:22:28.255Z,10.81
2018-11-27T10:24:58.943Z,11.57
2018-11-27T10:27:30.017Z,11.67
2018-11-27T10:30:00.657Z,11.96
2018-11-27T10:32:33.204Z,12.22
2018-11-27T10:35:08.422Z,12.28
2018-11-27T10:37:39.100Z,11.64
2018-11-27T10:40:10.420Z,11.76
2018-11-27T10:42:41.110Z,12.24
2018-11-27T10:45:14.137Z,11.96
2018-11-27T10:47:45.431Z,11.88
2018-11-27T10:50:16.953Z,12.89
2018-11-27T10:52:48.719Z,12.76
2018-11-27T10:55:20.119Z,13.09
2018-11-27T10:57:50.875Z,12.83
2018-11-27T11:00:28.344Z,13.08
2018-11-27T11:03:05.690Z,14.07
2018-11-27T11:05:37.672Z,14.60
2018-11-27T11:08:08.364Z,14.95
2018-11-27T11:10:39.079Z,14.85
2018-11-27T11:13:09.794Z,15.40
2018-11-27T11:15:40.532Z,14.94
2018-11-27T11:18:11.234Z,15.43
2018-11-27T11:20:41.918Z,15.68
2018-11-27T11:23:12.570Z,15.02
2018-11-27T11:25:43.305Z,15.15
2018-11-27T11:28:13.987Z,14.87
2018-11-27T11:30:44.793Z,14.38
2018-11-27T11:33:15.501Z,13.69
2018-11-27T11:35:46.221Z,13.59
2018-11-27T11:38:16.892Z,13.26
2018-11-27T11:40:47.619Z,13.23
2018-11-27T11:43:18.360Z,12.94
2018-11-27T11:45:49.041Z,12.90
2018-11-27T11:48:19.806Z,12.54
2018-11-27T11:50:50.562Z,12.59
2018-11-27T11:53:21.332Z,12.36
2018-11-27T11:55:52.717Z,12.51
2018-11-27T11:58:23.449Z,12.43
2018-11-27T12:00:55.471Z,12.72
2018-11-27T12:03:26.132Z,13.28
2018-11-27T12:05:56.857Z,13.81
2018-11-27T12:08:28.261Z,14.59
2018-11-27T12:10:59.024Z,16.07
2018-11-27T12:13:29.789Z,17.77
2018-11-27T12:16:00.482Z,18.56
2018-11-27T12:18:36.548Z,18.79
2018-11-27T12:21:07.819Z,18.47
2018-11-27T12:23:39.099Z,19.74
2018-11-27T12:26:09.855Z,20.77
2018-11-27T12:28:41.049Z,21.14
2018-11-27T12:31:11.765Z,20.49
2018-11-27T12:33:42.429Z,19.83
2018-11-27T12:36:13.115Z,18.48
2018-11-27T12:38:43.841Z,17.47
2018-11-27T12:41:14.601Z,17.61
2018-11-27T12:43:45.309Z,17.69
2018-11-27T12:46:16.037Z,17.30
2018-11-27T12:48:46.689Z,16.05
2018-11-27T12:51:17.866Z,15.31
2018-11-27T12:53:48.197Z,14.85
2018-11-27T12:56:18.933Z,14.99
2018-11-27T12:58:49.610Z,15.01
2018-11-27T13:01:20.761Z,14.78
2018-11-27T13:03:51.587Z,15.09
2018-11-27T13:06:27.699Z,15.21
2018-11-27T13:08:53.177Z,15.45
2018-11-27T13:11:23.912Z,15.29
2018-11-27T13:13:54.670Z,15.18
2018-11-27T13:16:25.465Z,14.58
2018-11-27T13:18:56.221Z,14.95
2018-11-27T13:21:27.053Z,14.95
2018-11-27T13:23:57.761Z,14.71
2018-11-27T13:26:28.461Z,14.80
2018-11-27T13:28:59.129Z,14.92
2018-11-27T13:31:30.886Z,14.70
2018-11-27T13:34:35.227Z,14.86
2018-11-27T13:37:08.412Z,14.66
2018-11-27T13:39:40.606Z,14.89
2018-11-27T13:42:11.305Z,14.96
2018-11-27T13:44:42.149Z,15.16
2018-11-27T13:47:13.429Z,15.31
2018-11-27T13:49:44.116Z,15.80
2018-11-27T13:52:14.998Z,15.83
2018-11-27T13:54:45.690Z,16.35
2018-11-27T13:57:17.354Z,15.94
2018-11-27T13:59:48.230Z,16.21
2018-11-27T14:02:19.029Z,15.82
2018-11-27T14:04:49.980Z,15.98
2018-11-27T14:07:20.747Z,15.87
2018-11-27T14:09:51.967Z,15.91
2018-11-27T14:12:22.698Z,15.80
2018-11-27T14:14:53.405Z,15.41
2018-11-27T14:17:24.043Z,15.68
2018-11-27T14:19:54.777Z,15.93
2018-11-27T14:22:25.454Z,15.58
2018-11-27T14:24:56.165Z,15.49
2018-11-27T14:27:27.004Z,15.61
2018-11-27T14:29:57.726Z,15.73
2018-11-27T14:32:28.428Z,15.81
2018-11-27T14:35:00.037Z,15.48
2018-11-27T14:37:33.098Z,15.59
2018-11-27T14:40:09.845Z,15.53
2018-11-27T14:42:40.588Z,15.37
2018-11-27T14:45:17.301Z,15.34
2018-11-27T14:47:50.986Z,15.21
2018-11-27T14:50:23.222Z,15.03
2018-11-27T14:52:54.985Z,14.89
2018-11-27T14:55:28.984Z,14.52
2018-11-27T14:58:00.682Z,14.44
2018-11-27T15:00:32.869Z,14.58
2018-11-27T15:03:07.251Z,14.76
2018-11-27T15:05:39.677Z,14.98
2018-11-27T15:08:11.869Z,15.03
2018-11-27T15:10:42.595Z,15.21
2018-11-27T15:13:14.129Z,15.19
2018-11-27T15:15:44.913Z,15.33
2018-11-27T15:18:15.586Z,15.35
2018-11-27T15:20:46.314Z,15.11
2018-11-27T15:23:17.286Z,15.11
2018-11-27T15:25:47.990Z,14.82
2018-11-27T15:28:18.682Z,14.77
2018-11-27T15:30:49.390Z,14.75
2018-11-27T15:33:20.397Z,14.64
2018-11-27T15:35:51.130Z,14.60
2018-11-27T15:38:21.792Z,14.48
2018-11-27T15:40:52.578Z,14.28
2018-11-27T15:43:23.267Z,14.26
2018-11-27T15:45:53.975Z,14.29
2018-11-27T15:48:24.755Z,14.38
2018-11-27T15:50:55.519Z,14.25
2018-11-27T15:53:26.292Z,14.22
2018-11-27T15:55:57.002Z,14.16
2018-11-27T15:58:27.769Z,13.86
2018-11-27T16:00:58.567Z,13.77
2018-11-27T16:03:29.410Z,13.67
2018-11-27T16:06:00.129Z,13.62
2018-11-27T16:08:34.546Z,13.54
2018-11-27T16:11:08.849Z,13.49
2018-11-27T16:13:39.584Z,13.43
2018-11-27T16:16:10.370Z,13.33
2018-11-27T16:18:44.070Z,13.34
2018-11-27T16:21:15.114Z,13.27
2018-11-27T16:23:46.021Z,13.19
2018-11-27T16:26:17.110Z,13.19
2018-11-27T16:28:47.807Z,13.17
2018-11-27T16:31:19.081Z,13.11
2018-11-27T16:33:49.814Z,13.11
2018-11-27T16:36:20.464Z,13.14
2018-11-27T16:38:51.209Z,13.07
2018-11-27T16:41:21.974Z,13.08
2018-11-27T16:43:52.741Z,13.10
2018-11-27T16:46:23.499Z,13.13
2018-11-27T16:48:54.821Z,13.25
2018-11-27T16:51:25.536Z,12.86
2018-11-27T16:53:56.234Z,12.78
2018-11-27T16:56:27.023Z,12.95
2018-11-27T16:58:57.717Z,12.89
2018-11-27T17:01:28.443Z,12.73
2018-11-27T17:03:59.242Z,12.76
2018-11-27T17:06:30.195Z,12.61
2018-11-27T17:09:00.985Z,12.44
2018-11-27T17:11:31.694Z,12.47
2018-11-27T17:14:05.573Z,12.35
2018-11-27T17:16:36.517Z,12.27
2018-11-27T17:19:08.438Z,12.25
2018-11-27T17:21:39.113Z,12.19
2018-11-27T17:24:09.851Z,12.08
2018-11-27T17:26:40.538Z,12.02
2018-11-27T17:29:11.262Z,11.97
2018-11-27T17:31:41.997Z,12.02
2018-11-27T17:34:14.827Z,12.09
2018-11-27T17:36:46.731Z,12.01
2018-11-27T17:39:17.401Z,12.05
2018-11-27T17:41:48.162Z,12.08
2018-11-27T17:44:18.890Z,12.02
2018-11-27T17:46:49.577Z,11.93
2018-11-27T17:49:20.803Z,11.93
2018-11-27T17:51:52.651Z,11.99
2018-11-27T17:54:23.618Z,11.94
2018-11-27T17:56:54.324Z,11.88
2018-11-27T17:59:25.006Z,11.88
2018-11-27T18:01:55.743Z,11.85
2018-11-27T18:04:26.420Z,11.82
2018-11-27T18:06:57.098Z,11.76
2018-11-27T18:09:27.787Z,11.69
2018-11-27T18:11:58.950Z,11.70
2018-11-27T18:14:29.662Z,11.75
2018-11-27T18:17:00.338Z,11.69
2018-11-27T18:19:31.191Z,11.68
2018-11-27T18:22:06.798Z,11.66
2018-11-27T18:24:38.520Z,11.63
2018-11-27T18:27:08.278Z,11.59
2018-11-27T18:29:39.145Z,11.50
2018-11-27T18:32:10.231Z,11.53
2018-11-27T18:34:40.917Z,11.61
2018-11-27T18:37:11.597Z,11.56
2018-11-27T18:39:42.266Z,11.52
2018-11-27T18:42:12.899Z,11.45
2018-11-27T18:44:43.574Z,11.29
2018-11-27T18:47:14.210Z,11.22
2018-11-27T18:49:44.831Z,11.14
2018-11-27T18:52:15.567Z,11.08
2018-11-27T18:54:46.234Z,11.06
2018-11-27T18:57:16.947Z,11.07
2018-11-27T18:59:47.627Z,11.05
2018-11-27T19:02:19.271Z,11.05
2018-11-27T19:04:49.981Z,11.18
2018-11-27T19:07:20.730Z,11.22
2018-11-27T19:09:51.431Z,11.19
2018-11-27T19:12:22.091Z,11.19
2018-11-27T19:14:52.932Z,11.19
2018-11-27T19:17:23.640Z,11.17
2018-11-27T19:19:54.365Z,11.08
2018-11-27T19:22:25.596Z,11.02
2018-11-27T19:24:56.279Z,11.04
2018-11-27T19:27:27.025Z,11.04
2018-11-27T19:29:57.899Z,11.04
2018-11-27T19:32:28.519Z,11.06
2018-11-27T19:34:59.225Z,11.08
2018-11-27T19:37:30.619Z,11.05
2018-11-27T19:40:06.267Z,11.04
2018-11-27T19:42:36.898Z,11.02
2018-11-27T19:45:11.079Z,11.12
2018-11-27T19:47:41.810Z,11.03
2018-11-27T19:50:13.956Z,11.04
2018-11-27T19:52:45.675Z,10.97
2018-11-27T19:55:17.508Z,10.94
2018-11-27T19:57:48.215Z,10.93
2018-11-27T20:00:23.880Z,10.89
2018-11-27T20:02:54.817Z,10.98
2018-11-27T20:05:28.915Z,10.96
2018-11-27T20:08:01.036Z,10.93
2018-11-27T20:10:32.902Z,10.85
2018-11-27T20:13:06.347Z,10.84
2018-11-27T20:15:37.147Z,10.81
2018-11-27T20:18:08.453Z,10.83
2018-11-27T20:20:39.230Z,10.79
2018-11-27T20:23:09.946Z,10.75
2018-11-27T20:25:40.874Z,10.73
2018-11-27T20:28:12.919Z,10.69
2018-11-27T20:30:44.667Z,10.75
2018-11-27T20:33:15.398Z,10.75
2018-11-27T20:35:46.042Z,10.77
2018-11-27T20:38:16.801Z,10.75
2018-11-27T20:40:48.452Z,10.73
2018-11-27T20:43:18.504Z,10.69
2018-11-27T20:45:50.042Z,10.70
2018-11-27T20:48:21.163Z,10.60
2018-11-27T20:50:53.099Z,10.46
2018-11-27T20:53:23.797Z,10.40
2018-11-27T20:55:54.504Z,10.31
2018-11-27T20:58:25.712Z,10.26
2018-11-27T21:00:56.868Z,10.25
2018-11-27T21:03:27.647Z,10.25
2018-11-27T21:05:58.350Z,10.19
2018-11-27T21:08:33.687Z,10.15
2018-11-27T21:11:09.334Z,10.15
2018-11-27T21:13:40.061Z,10.17
2018-11-27T21:16:13.179Z,10.19
2018-11-27T21:18:44.003Z,10.17
2018-11-27T21:21:14.726Z,10.25
2018-11-27T21:23:45.457Z,10.27
2018-11-27T21:26:16.609Z,10.27
2018-11-27T21:28:47.299Z,10.27
2018-11-27T21:31:17.976Z,10.33
2018-11-27T21:33:51.255Z,10.30
2018-11-27T21:36:24.124Z,10.32
2018-11-27T21:38:54.898Z,10.35
2018-11-27T21:41:29.062Z,10.31
2018-11-27T21:44:00.815Z,10.23
2018-11-27T21:46:36.317Z,10.23
2018-11-27T21:49:08.730Z,10.14
2018-11-27T21:51:39.600Z,10.13
2018-11-27T21:54:11.061Z,10.05
2018-11-27T21:56:41.667Z,10.06
2018-11-27T21:59:13.347Z,9.89
2018-11-27T22:01:44.373Z,9.79
2018-11-27T22:04:15.080Z,9.72
2018-11-27T22:06:46.046Z,9.69
2018-11-27T22:09:23.255Z,9.65
2018-11-27T22:11:53.879Z,9.57
2018-11-27T22:14:24.568Z,9.56
2018-11-27T22:17:04.323Z,9.54
2018-11-27T22:19:35.055Z,9.44
2018-11-27T22:22:06.217Z,9.40
2018-11-27T22:24:38.142Z,9.37
2018-11-27T22:27:08.765Z,9.31
2018-11-27T22:29:40.407Z,9.28
2018-11-27T22:32:11.065Z,9.29
2018-11-27T22:34:42.787Z,9.18
2018-11-27T22:37:13.847Z,9.14
2018-11-27T22:39:44.528Z,9.12
2018-11-27T22:42:15.171Z,9.03
2018-11-27T22:44:45.830Z,8.84
2018-11-27T22:47:16.555Z,8.88
2018-11-27T22:49:47.208Z,8.79
2018-11-27T22:52:18.486Z,8.82
2018-11-27T22:54:49.287Z,8.84
2018-11-27T22:57:20.039Z,8.73
2018-11-27T22:59:51.245Z,8.81
2018-11-27T23:02:22.099Z,8.87
2018-11-27T23:04:52.866Z,8.91
2018-11-27T23:07:28.615Z,8.81
2018-11-27T23:09:59.261Z,8.83
2018-11-27T23:12:29.951Z,8.85
2018-11-27T23:15:07.936Z,8.84
2018-11-27T23:17:38.802Z,8.75
2018-11-27T23:20:18.043Z,8.78
2018-11-27T23:22:48.763Z,8.77
2018-11-27T23:25:20.172Z,8.77
2018-11-27T23:27:51.043Z,8.79
2018-11-27T23:30:23.631Z,8.75
2018-11-27T23:32:54.343Z,8.84
2018-11-27T23:35:24.998Z,8.88
2018-11-27T23:37:55.690Z,8.84
2018-11-27T23:40:26.538Z,8.87
2018-11-27T23:42:57.476Z,8.81
2018-11-27T23:45:28.427Z,8.74
2018-11-27T23:47:59.091Z,8.66
2018-11-27T23:50:29.780Z,8.63
2018-11-27T23:53:00.484Z,8.49
2018-11-27T23:55:31.182Z,8.35
2018-11-27T23:58:01.879Z,8.29
